createdAt,value
2022-11-01T00:00:51.423Z,12.79
2022-11-01T00:05:52.973Z,12.78
2022-11-01T00:11:02.394Z,12.77
2022-11-01T00:16:04.069Z,12.72
2022-11-01T00:21:05.794Z,12.64
2022-11-01T00:26:08.245Z,12.50
2022-11-01T00:31:12.730Z,12.48
2022-11-01T00:36:15.033Z,12.50
2022-11-01T00:41:16.578Z,12.44
2022-11-01T00:46:18.249Z,12.36
2022-11-01T00:51:19.800Z,12.35
2022-11-01T00:56:21.425Z,12.31
2022-11-01T01:01:23.031Z,12.27
2022-11-01T01:06:24.739Z,12.17
2022-11-01T01:11:26.953Z,12.16
2022-11-01T01:16:28.599Z,12.11
2022-11-01T01:21:30.184Z,12.09
2022-11-01T01:26:31.811Z,12.07
2022-11-01T01:31:33.363Z,12.05
2022-11-01T01:36:35.023Z,12.06
2022-11-01T01:41:55.309Z,12.06
2022-11-01T01:46:56.946Z,12.04
2022-11-01T01:51:58.976Z,11.99
2022-11-01T01:57:00.586Z,11.97
2022-11-01T02:02:02.386Z,11.98
2022-11-01T02:07:04.758Z,11.96
2022-11-01T02:12:06.925Z,11.91
2022-11-01T02:17:25.502Z,11.84
2022-11-01T02:22:36.010Z,11.83
2022-11-01T02:27:55.713Z,11.77
2022-11-01T02:33:32.540Z,11.58
2022-11-01T02:38:34.033Z,11.61
2022-11-01T02:43:56.977Z,11.64
2022-11-01T02:48:59.160Z,11.63
2022-11-01T02:54:08.029Z,11.52
2022-11-01T02:59:22.146Z,11.41
2022-11-01T03:04:23.866Z,11.19
2022-11-01T03:09:26.460Z,11.27
2022-11-01T03:15:19.207Z,11.50
2022-11-01T03:20:24.247Z,11.46
2022-11-01T03:25:41.826Z,11.41
2022-11-01T03:30:50.548Z,11.28
2022-11-01T03:35:57.408Z,11.15
2022-11-01T03:41:06.396Z,11.09
2022-11-01T03:46:09.497Z,11.12
2022-11-01T03:51:11.148Z,11.13
2022-11-01T03:56:12.955Z,11.15
2022-11-01T04:01:16.625Z,11.08
2022-11-01T04:06:18.231Z,11.04
2022-11-01T04:11:19.771Z,10.97
2022-11-01T04:16:39.813Z,10.95
2022-11-01T04:21:41.661Z,10.82
2022-11-01T04:26:43.248Z,10.78
2022-11-01T04:31:44.811Z,10.80
2022-11-01T04:36:46.358Z,10.76
2022-11-01T04:41:47.909Z,10.74
2022-11-01T04:46:49.591Z,10.69
2022-11-01T04:51:51.175Z,10.70
2022-11-01T04:56:52.741Z,10.73
2022-11-01T05:01:54.343Z,10.76
2022-11-01T05:06:55.945Z,10.70
2022-11-01T05:11:57.479Z,10.70
2022-11-01T05:16:59.454Z,10.66
2022-11-01T05:22:00.999Z,10.58
2022-11-01T05:27:02.641Z,10.53
2022-11-01T05:32:04.372Z,10.40
2022-11-01T05:37:05.951Z,10.16
2022-11-01T05:42:07.759Z,10.10
2022-11-01T05:47:11.172Z,10.24
2022-11-01T05:52:14.894Z,10.39
2022-11-01T05:57:16.420Z,10.43
2022-11-01T06:02:18.002Z,10.40
2022-11-01T06:07:19.637Z,10.38
2022-11-01T06:12:24.529Z,10.37
2022-11-01T06:17:26.086Z,10.46
2022-11-01T06:22:27.685Z,10.56
2022-11-01T06:27:29.433Z,10.54
2022-11-01T06:32:30.994Z,10.62
2022-11-01T06:37:32.690Z,10.70
2022-11-01T06:42:34.295Z,10.74
2022-11-01T06:47:35.844Z,10.78
2022-11-01T06:52:37.557Z,10.85
2022-11-01T06:57:39.120Z,10.90
2022-11-01T07:02:40.732Z,10.94
2022-11-01T07:07:42.386Z,10.85
2022-11-01T07:12:43.942Z,10.78
2022-11-01T07:17:48.084Z,10.82
2022-11-01T07:23:04.618Z,10.89
2022-11-01T07:28:06.735Z,10.97
2022-11-01T07:33:08.467Z,10.97
2022-11-01T07:38:12.969Z,11.02
2022-11-01T07:43:17.118Z,11.09
2022-11-01T07:48:19.628Z,11.25
2022-11-01T07:53:21.167Z,11.33
2022-11-01T07:58:22.812Z,11.36
2022-11-01T08:03:24.594Z,11.44
2022-11-01T08:08:26.222Z,11.53
2022-11-01T08:13:28.200Z,11.64
2022-11-01T08:18:30.249Z,11.70
2022-11-01T08:23:31.797Z,11.66
2022-11-01T08:28:33.432Z,11.77
2022-11-01T08:33:35.288Z,11.79
2022-11-01T08:38:37.321Z,11.89
2022-11-01T08:43:40.618Z,12.07
2022-11-01T08:48:42.401Z,12.35
2022-11-01T08:53:44.012Z,12.53
2022-11-01T08:58:48.869Z,12.67
2022-11-01T09:03:50.739Z,12.81
2022-11-01T09:08:53.524Z,12.98
2022-11-01T09:13:55.119Z,13.37
2022-11-01T09:19:01.609Z,13.62
2022-11-01T09:24:03.980Z,13.67
2022-11-01T09:29:05.598Z,13.73
2022-11-01T09:34:07.537Z,13.97
2022-11-01T09:39:10.355Z,14.40
2022-11-01T09:44:19.746Z,14.54
2022-11-01T09:49:25.448Z,14.50
2022-11-01T09:54:28.311Z,15.10
2022-11-01T10:00:07.316Z,15.42
2022-11-01T10:05:24.010Z,15.63
2022-11-01T10:11:00.656Z,15.67
2022-11-01T10:16:02.270Z,15.50
2022-11-01T10:21:11.539Z,15.49
2022-11-01T10:26:18.456Z,15.62
2022-11-01T10:31:24.863Z,15.75
2022-11-01T10:36:34.199Z,15.88
2022-11-01T10:41:41.080Z,16.11
2022-11-01T10:46:48.983Z,16.17
2022-11-01T10:51:55.368Z,16.27
2022-11-01T10:57:02.739Z,16.12
2022-11-01T11:02:34.650Z,16.16
2022-11-01T11:07:36.228Z,16.33
2022-11-01T11:12:37.845Z,16.45
2022-11-01T11:17:44.991Z,16.67
2022-11-01T11:22:46.627Z,16.90
2022-11-01T11:27:52.933Z,17.11
2022-11-01T11:32:55.074Z,17.11
2022-11-01T11:38:05.315Z,17.00
2022-11-01T11:43:22.569Z,16.83
2022-11-01T11:48:24.114Z,16.87
2022-11-01T11:53:25.688Z,16.82
2022-11-01T11:58:32.989Z,16.91
2022-11-01T12:03:45.582Z,16.99
2022-11-01T12:08:55.940Z,17.13
2022-11-01T12:14:05.021Z,17.21
2022-11-01T12:19:23.351Z,17.08
2022-11-01T12:24:28.738Z,17.13
2022-11-01T12:29:39.126Z,17.14
2022-11-01T12:34:44.606Z,17.16
2022-11-01T12:39:55.705Z,17.20
2022-11-01T12:45:21.352Z,17.33
2022-11-01T12:50:49.190Z,17.43
2022-11-01T12:55:50.749Z,17.34
2022-11-01T13:01:20.171Z,17.33
2022-11-01T13:06:54.661Z,17.45
2022-11-01T13:12:08.265Z,17.52
2022-11-01T13:17:26.830Z,17.54
2022-11-01T13:22:34.135Z,17.50
2022-11-01T13:27:43.517Z,17.35
2022-11-01T13:33:04.176Z,17.35
2022-11-01T13:38:15.597Z,17.09
2022-11-01T13:43:21.882Z,17.08
2022-11-01T13:48:40.717Z,17.05
2022-11-01T13:53:46.800Z,17.12
2022-11-01T13:58:48.567Z,17.22
2022-11-01T14:04:12.312Z,17.32
2022-11-01T14:09:26.459Z,17.33
2022-11-01T14:14:31.038Z,17.18
2022-11-01T14:19:32.667Z,17.07
2022-11-01T14:24:56.033Z,16.97
2022-11-01T14:29:57.674Z,16.88
2022-11-01T14:35:15.467Z,16.84
2022-11-01T14:40:27.922Z,16.75
2022-11-01T14:45:33.654Z,16.67
2022-11-01T14:50:45.486Z,16.58
2022-11-01T14:55:47.107Z,16.50
2022-11-01T15:00:54.981Z,16.42
2022-11-01T15:05:57.302Z,16.38
2022-11-01T15:11:02.982Z,16.28
2022-11-01T15:16:14.168Z,16.21
2022-11-01T15:21:22.239Z,16.10
2022-11-01T15:26:31.189Z,16.00
2022-11-01T15:31:35.768Z,15.99
2022-11-01T15:36:39.361Z,16.00
2022-11-01T15:41:40.974Z,15.93
2022-11-01T15:46:43.351Z,15.86
2022-11-01T15:51:55.709Z,15.78
2022-11-01T15:57:00.591Z,15.72
2022-11-01T16:02:05.793Z,15.55
2022-11-01T16:07:10.355Z,15.53
2022-11-01T16:12:17.709Z,15.46
2022-11-01T16:17:35.129Z,15.33
2022-11-01T16:22:42.673Z,15.35
2022-11-01T16:28:03.087Z,15.25
2022-11-01T16:33:35.757Z,15.22
2022-11-01T16:38:42.933Z,15.23
2022-11-01T16:43:45.370Z,15.16
2022-11-01T16:49:03.908Z,15.17
2022-11-01T16:54:05.507Z,15.16
2022-11-01T16:59:19.768Z,15.06
2022-11-01T17:04:22.763Z,14.95
2022-11-01T17:09:24.858Z,15.06
2022-11-01T17:14:26.563Z,15.00
2022-11-01T17:19:33.126Z,14.88
2022-11-01T17:24:35.614Z,14.85
2022-11-01T17:29:37.162Z,14.74
2022-11-01T17:34:39.285Z,14.89
2022-11-01T17:39:40.990Z,14.83
2022-11-01T17:44:42.547Z,14.79
2022-11-01T17:49:44.170Z,14.72
2022-11-01T17:54:45.739Z,14.73
2022-11-01T17:59:47.300Z,14.81
2022-11-01T18:04:48.877Z,14.79
2022-11-01T18:09:50.424Z,14.84
2022-11-01T18:15:03.439Z,14.87
2022-11-01T18:20:23.142Z,14.95
2022-11-01T18:25:39.509Z,14.90
2022-11-01T18:30:47.598Z,14.83
2022-11-01T18:36:01.270Z,14.82
2022-11-01T18:41:07.006Z,14.79
2022-11-01T18:46:26.196Z,14.80
2022-11-01T18:51:31.499Z,14.81
2022-11-01T18:56:33.801Z,14.80
2022-11-01T19:01:36.677Z,14.83
2022-11-01T19:06:38.359Z,14.82
2022-11-01T19:11:39.962Z,14.85
2022-11-01T19:16:42.367Z,14.85
2022-11-01T19:21:44.327Z,14.87
2022-11-01T19:26:45.995Z,14.87
2022-11-01T19:31:51.413Z,14.79
2022-11-01T19:36:54.012Z,14.79
2022-11-01T19:42:01.113Z,14.74
2022-11-01T19:47:31.935Z,14.78
2022-11-01T19:52:36.843Z,14.79
2022-11-01T19:57:40.919Z,14.81
2022-11-01T20:02:47.831Z,14.79
2022-11-01T20:07:50.523Z,14.76
2022-11-01T20:12:52.105Z,14.70
2022-11-01T20:17:53.708Z,14.67
2022-11-01T20:23:20.356Z,14.64
2022-11-01T20:28:17.212Z,14.65
2022-11-01T20:33:18.815Z,14.61
2022-11-01T20:43:27.309Z,14.61
2022-11-01T20:48:28.873Z,14.52
2022-11-01T20:53:31.672Z,14.44
2022-11-01T20:58:39.915Z,14.40
2022-11-01T21:03:41.548Z,14.35
2022-11-01T21:08:47.151Z,14.31
2022-11-01T21:13:51.405Z,14.25
2022-11-01T21:18:59.076Z,14.21
2022-11-01T21:24:16.824Z,14.19
2022-11-01T21:29:29.406Z,14.13
2022-11-01T21:34:31.793Z,14.13
2022-11-01T21:39:33.445Z,14.07
2022-11-01T21:44:40.509Z,14.01
2022-11-01T21:49:42.276Z,13.90
2022-11-01T21:54:44.311Z,13.79
2022-11-01T21:59:46.325Z,13.73
2022-11-01T22:04:47.894Z,13.68
2022-11-01T22:09:49.458Z,13.66
2022-11-01T22:14:51.007Z,13.63
2022-11-01T22:19:52.774Z,13.57
2022-11-01T22:24:54.348Z,13.53
2022-11-01T22:29:55.894Z,13.50
2022-11-01T22:34:57.468Z,13.46
2022-11-01T22:39:59.020Z,13.42
2022-11-01T22:45:00.665Z,13.38
2022-11-01T22:50:03.009Z,13.35
2022-11-01T22:55:10.284Z,13.25
2022-11-01T23:00:41.720Z,13.14
2022-11-01T23:05:43.587Z,13.04
2022-11-01T23:10:48.269Z,13.01
2022-11-01T23:15:51.353Z,12.87
2022-11-01T23:20:57.201Z,12.81
2022-11-01T23:26:01.917Z,12.81
2022-11-01T23:31:04.913Z,12.81
2022-11-01T23:36:16.380Z,12.81
2022-11-01T23:41:27.496Z,12.77
2022-11-01T23:46:29.257Z,12.81
2022-11-01T23:51:31.465Z,12.77
2022-11-01T23:56:33.037Z,12.64
